createdAt,value
2023-04-09T00:01:11.221Z,6.18
2023-04-09T00:03:40.661Z,6.15
2023-04-09T00:06:09.130Z,6.12
2023-04-09T00:08:37.497Z,6.09
2023-04-09T00:11:06.096Z,6.08
2023-04-09T00:13:39.261Z,6.06
2023-04-09T00:16:09.092Z,6.04
2023-04-09T00:18:37.688Z,6.04
2023-04-09T00:21:07.275Z,6.04
2023-04-09T00:23:36.270Z,6.06
2023-04-09T00:26:04.650Z,6.08
2023-04-09T00:28:33.158Z,6.12
2023-04-09T00:31:01.613Z,6.15
2023-04-09T00:33:30.726Z,6.18
2023-04-09T00:35:59.029Z,6.21
2023-04-09T00:38:27.276Z,6.24
2023-04-09T00:40:55.949Z,6.27
2023-04-09T00:43:24.535Z,6.27
2023-04-09T00:45:53.051Z,6.26
2023-04-09T00:48:21.599Z,6.24
2023-04-09T00:50:49.780Z,6.21
2023-04-09T00:53:18.487Z,6.17
2023-04-09T00:55:47.145Z,6.13
2023-04-09T00:58:15.848Z,6.08
2023-04-09T01:00:44.121Z,6.04
2023-04-09T01:03:13.053Z,6.00
2023-04-09T01:05:48.752Z,5.95
2023-04-09T01:08:49.608Z,5.91
2023-04-09T01:11:32.404Z,5.86
2023-04-09T01:14:24.876Z,5.84
2023-04-09T01:17:06.642Z,5.82
2023-04-09T01:19:51.216Z,5.80
2023-04-09T01:22:54.089Z,5.79
2023-04-09T01:25:36.300Z,5.77
2023-04-09T01:28:17.440Z,5.78
2023-04-09T01:30:50.646Z,5.78
2023-04-09T01:33:20.738Z,5.77
2023-04-09T01:35:51.059Z,5.76
2023-04-09T01:38:21.964Z,5.75
2023-04-09T01:40:51.143Z,5.73
2023-04-09T01:43:20.339Z,5.71
2023-04-09T01:45:49.235Z,5.69
2023-04-09T01:48:17.919Z,5.67
2023-04-09T01:50:46.813Z,5.63
2023-04-09T01:53:15.910Z,5.59
2023-04-09T01:55:44.298Z,5.54
2023-04-09T01:58:12.683Z,5.51
2023-04-09T02:00:48.289Z,5.46
2023-04-09T02:03:34.084Z,5.41
2023-04-09T02:06:19.686Z,5.36
2023-04-09T02:08:48.982Z,5.30
2023-04-09T02:11:18.308Z,5.25
2023-04-09T02:13:46.870Z,5.23
2023-04-09T02:16:16.944Z,5.20
2023-04-09T02:18:45.368Z,5.18
2023-04-09T02:21:14.369Z,5.20
2023-04-09T02:23:42.643Z,5.21
2023-04-09T02:26:11.119Z,5.23
2023-04-09T02:28:39.401Z,5.26
2023-04-09T02:31:07.870Z,5.30
2023-04-09T02:33:36.360Z,5.32
2023-04-09T02:36:05.912Z,5.37
2023-04-09T02:38:34.141Z,5.40
2023-04-09T02:41:02.321Z,5.43
2023-04-09T02:43:31.002Z,5.46
2023-04-09T02:45:59.506Z,5.49
2023-04-09T02:48:28.384Z,5.50
2023-04-09T02:50:57.286Z,5.51
2023-04-09T02:53:26.118Z,5.50
2023-04-09T02:55:54.645Z,5.48
2023-04-09T02:58:23.022Z,5.46
2023-04-09T03:00:51.352Z,5.44
2023-04-09T03:03:19.918Z,5.42
2023-04-09T03:05:48.365Z,5.39
2023-04-09T03:08:16.884Z,5.36
2023-04-09T03:10:45.230Z,5.35
2023-04-09T03:13:13.712Z,5.34
2023-04-09T03:15:42.147Z,5.32
2023-04-09T03:18:10.776Z,5.31
2023-04-09T03:20:40.081Z,5.30
2023-04-09T03:23:11.013Z,5.30
2023-04-09T03:25:42.876Z,5.30
2023-04-09T03:28:16.486Z,5.29
2023-04-09T03:30:50.739Z,5.29
2023-04-09T03:33:19.909Z,5.28
2023-04-09T03:36:06.963Z,5.29
2023-04-09T03:38:55.617Z,5.30
2023-04-09T03:41:31.723Z,5.30
2023-04-09T03:44:02.870Z,5.29
2023-04-09T03:46:36.613Z,5.27
2023-04-09T03:49:05.462Z,5.25
2023-04-09T03:51:41.419Z,5.22
2023-04-09T03:54:09.691Z,5.20
2023-04-09T03:56:38.075Z,5.17
2023-04-09T03:59:09.008Z,5.16
2023-04-09T04:01:40.671Z,5.13
2023-04-09T04:04:09.385Z,5.13
2023-04-09T04:06:42.664Z,5.13
2023-04-09T04:09:24.541Z,5.16
2023-04-09T04:11:58.979Z,5.18
2023-04-09T04:14:38.910Z,5.22
2023-04-09T04:17:15.076Z,5.29
2023-04-09T04:19:43.556Z,5.36
2023-04-09T04:22:12.255Z,5.44
2023-04-09T04:24:42.393Z,5.50
2023-04-09T04:27:10.898Z,5.58
2023-04-09T04:29:39.221Z,5.67
2023-04-09T04:32:21.533Z,5.75
2023-04-09T04:34:50.752Z,5.83
2023-04-09T04:37:25.681Z,5.98
2023-04-09T04:39:56.779Z,6.13
2023-04-09T04:42:25.285Z,6.28
2023-04-09T04:44:53.871Z,6.42
2023-04-09T04:47:47.765Z,6.61
2023-04-09T04:50:16.376Z,6.80
2023-04-09T04:52:57.818Z,6.98
2023-04-09T04:55:29.270Z,7.12
2023-04-09T04:57:58.158Z,7.30
2023-04-09T05:00:28.895Z,7.42
2023-04-09T05:03:01.617Z,7.53
2023-04-09T05:05:54.634Z,7.62
2023-04-09T05:08:23.627Z,7.67
2023-04-09T05:10:56.335Z,7.75
2023-04-09T05:13:28.984Z,7.75
2023-04-09T05:15:57.670Z,7.77
2023-04-09T05:18:26.459Z,7.79
2023-04-09T05:20:54.833Z,7.79
2023-04-09T05:23:23.432Z,7.79
2023-04-09T05:25:51.759Z,7.77
2023-04-09T05:28:28.373Z,7.77
2023-04-09T05:31:05.376Z,7.77
2023-04-09T05:33:38.470Z,7.80
2023-04-09T05:36:19.190Z,7.85
2023-04-09T05:38:48.101Z,7.91
2023-04-09T05:41:16.602Z,7.92
2023-04-09T05:44:14.270Z,7.97
2023-04-09T05:46:42.633Z,8.03
2023-04-09T05:49:11.729Z,8.10
2023-04-09T05:51:40.557Z,8.17
2023-04-09T05:54:09.101Z,8.21
2023-04-09T05:56:38.753Z,8.22
2023-04-09T05:59:08.138Z,8.27
2023-04-09T06:01:36.387Z,8.32
2023-04-09T06:04:05.380Z,8.36
2023-04-09T06:06:33.760Z,8.41
2023-04-09T06:09:01.832Z,8.48
2023-04-09T06:11:33.490Z,8.57
2023-04-09T06:14:01.968Z,8.69
2023-04-09T06:16:30.350Z,8.81
2023-04-09T06:18:58.730Z,8.93
2023-04-09T06:21:27.003Z,9.05
2023-04-09T06:23:55.313Z,9.22
2023-04-09T06:26:23.462Z,9.42
2023-04-09T06:28:52.555Z,9.61
2023-04-09T06:31:21.303Z,9.76
2023-04-09T06:33:49.619Z,9.91
2023-04-09T06:36:17.792Z,10.06
2023-04-09T06:38:46.521Z,10.27
2023-04-09T06:41:15.067Z,10.47
2023-04-09T06:43:43.356Z,10.69
2023-04-09T06:46:12.246Z,10.90
2023-04-09T06:48:42.653Z,11.17
2023-04-09T06:51:11.449Z,11.50
2023-04-09T06:53:39.779Z,11.92
2023-04-09T06:56:08.381Z,12.40
2023-04-09T06:58:36.994Z,13.09
2023-04-09T07:01:06.185Z,13.94
2023-04-09T07:03:34.698Z,14.62
2023-04-09T07:06:03.367Z,15.26
2023-04-09T07:08:31.523Z,15.82
2023-04-09T07:10:59.806Z,16.32
2023-04-09T07:16:01.216Z,16.68
2023-04-09T07:18:30.690Z,16.58
2023-04-09T07:20:59.453Z,16.47
2023-04-09T07:23:27.863Z,16.56
2023-04-09T07:25:56.261Z,16.69
2023-04-09T07:28:24.488Z,16.85
2023-04-09T07:30:53.592Z,17.27
2023-04-09T07:33:21.999Z,17.66
2023-04-09T07:35:50.406Z,17.82
2023-04-09T07:38:18.580Z,18.01
2023-04-09T07:40:47.456Z,18.20
2023-04-09T07:43:15.830Z,18.41
2023-04-09T07:45:44.902Z,18.64
2023-04-09T07:48:13.276Z,18.80
2023-04-09T07:50:41.496Z,19.12
2023-04-09T07:53:09.830Z,19.39
2023-04-09T07:55:38.392Z,19.53
2023-04-09T07:58:07.654Z,19.74
2023-04-09T08:00:36.649Z,19.85
2023-04-09T08:03:05.391Z,19.82
2023-04-09T08:05:33.917Z,19.73
2023-04-09T08:08:01.998Z,19.65
2023-04-09T08:10:30.441Z,19.66
2023-04-09T08:12:58.672Z,19.64
2023-04-09T08:15:27.506Z,19.68
2023-04-09T08:17:55.684Z,19.89
2023-04-09T08:20:24.367Z,20.03
2023-04-09T08:22:52.644Z,20.06
2023-04-09T08:25:21.228Z,20.24
2023-04-09T08:27:49.382Z,20.36
2023-04-09T08:30:18.891Z,20.47
2023-04-09T08:32:47.521Z,20.57
2023-04-09T08:35:16.060Z,20.62
2023-04-09T08:37:44.378Z,20.71
2023-04-09T08:40:12.943Z,20.79
2023-04-09T08:42:46.159Z,20.85
2023-04-09T08:45:14.603Z,21.06
2023-04-09T08:47:44.971Z,21.03
2023-04-09T08:50:14.671Z,20.82
2023-04-09T08:52:46.216Z,20.66
2023-04-09T08:55:14.388Z,20.62
2023-04-09T08:57:42.869Z,20.78
2023-04-09T09:00:12.563Z,21.02
2023-04-09T09:03:07.278Z,21.14
2023-04-09T09:05:44.742Z,21.13
2023-04-09T09:08:33.597Z,21.15
2023-04-09T09:11:02.121Z,21.25
2023-04-09T09:13:30.385Z,21.25
2023-04-09T09:16:13.761Z,21.05
2023-04-09T09:18:44.223Z,21.02
2023-04-09T09:21:17.529Z,21.17
2023-04-09T09:23:48.500Z,21.32
2023-04-09T09:26:23.237Z,21.33
2023-04-09T09:28:52.515Z,21.38
2023-04-09T09:31:22.936Z,21.50
2023-04-09T09:33:52.105Z,21.46
2023-04-09T09:36:34.830Z,21.49
2023-04-09T09:39:10.610Z,21.65
2023-04-09T09:41:42.522Z,21.72
2023-04-09T09:44:12.175Z,21.88
2023-04-09T09:46:42.719Z,22.01
2023-04-09T09:49:10.955Z,22.01
2023-04-09T09:51:40.904Z,21.87
2023-04-09T09:54:13.036Z,21.77
2023-04-09T09:56:43.718Z,21.81
2023-04-09T09:59:23.115Z,21.85
2023-04-09T10:02:00.037Z,21.72
2023-04-09T10:04:35.002Z,21.65
2023-04-09T10:07:07.282Z,21.49
2023-04-09T10:09:38.363Z,21.31
2023-04-09T10:12:09.881Z,21.29
2023-04-09T10:14:40.410Z,21.41
2023-04-09T10:17:09.000Z,21.40
2023-04-09T10:19:46.896Z,21.42
2023-04-09T10:22:21.245Z,21.38
2023-04-09T10:24:51.624Z,21.06
2023-04-09T10:27:23.673Z,20.70
2023-04-09T10:29:52.295Z,20.42
2023-04-09T10:32:23.852Z,20.03
2023-04-09T10:34:52.849Z,19.79
2023-04-09T10:37:23.679Z,19.85
2023-04-09T10:39:53.284Z,19.89
2023-04-09T10:42:24.974Z,20.00
2023-04-09T10:45:15.213Z,20.22
2023-04-09T10:47:44.316Z,20.36
2023-04-09T10:50:28.034Z,20.12
2023-04-09T10:52:58.366Z,19.74
2023-04-09T10:55:40.963Z,19.60
2023-04-09T10:58:13.285Z,19.72
2023-04-09T11:00:44.765Z,19.95
2023-04-09T11:03:23.609Z,20.02
2023-04-09T11:06:02.975Z,19.82
2023-04-09T11:08:33.681Z,19.80
2023-04-09T11:11:02.780Z,19.87
2023-04-09T11:13:32.703Z,19.94
2023-04-09T11:16:03.528Z,19.79
2023-04-09T11:18:37.293Z,19.57
2023-04-09T11:21:06.570Z,19.48
2023-04-09T11:23:35.040Z,19.27
2023-04-09T11:26:04.092Z,19.16
2023-04-09T11:28:32.344Z,19.15
2023-04-09T11:31:00.869Z,19.24
2023-04-09T11:33:34.561Z,19.36
2023-04-09T11:36:06.577Z,19.49
2023-04-09T11:38:37.272Z,19.47
2023-04-09T11:41:05.545Z,19.23
2023-04-09T11:43:36.569Z,19.02
2023-04-09T11:46:06.194Z,18.87
2023-04-09T11:48:35.142Z,18.85
2023-04-09T11:51:04.151Z,18.90
2023-04-09T11:53:32.580Z,18.87
2023-04-09T11:56:01.717Z,18.74
2023-04-09T11:58:29.903Z,18.58
2023-04-09T12:00:59.207Z,18.43
2023-04-09T12:03:34.137Z,18.24
2023-04-09T12:06:04.184Z,18.06
2023-04-09T12:08:36.038Z,17.90
2023-04-09T12:11:12.814Z,17.79
2023-04-09T12:13:45.672Z,17.66
2023-04-09T12:16:14.970Z,17.54
2023-04-09T12:18:43.963Z,17.41
2023-04-09T12:21:12.988Z,17.27
2023-04-09T12:23:41.231Z,17.20
2023-04-09T12:26:09.706Z,17.17
2023-04-09T12:28:38.191Z,17.14
2023-04-09T12:31:11.168Z,17.13
2023-04-09T12:33:40.681Z,17.14
2023-04-09T12:36:09.116Z,17.06
2023-04-09T12:38:37.645Z,16.94
2023-04-09T12:41:05.907Z,16.90
2023-04-09T12:43:34.342Z,16.83
2023-04-09T12:46:04.082Z,16.73
2023-04-09T12:48:33.302Z,16.68
2023-04-09T12:51:02.106Z,16.66
2023-04-09T12:53:32.216Z,16.72
2023-04-09T12:56:01.859Z,16.81
2023-04-09T12:58:31.524Z,16.87
2023-04-09T13:01:00.368Z,16.86
2023-04-09T13:03:29.519Z,16.80
2023-04-09T13:05:58.314Z,16.78
2023-04-09T13:08:26.729Z,16.79
2023-04-09T13:10:55.321Z,16.82
2023-04-09T13:13:23.748Z,16.83
2023-04-09T13:15:52.279Z,16.79
2023-04-09T13:18:20.534Z,16.76
2023-04-09T13:20:48.709Z,16.75
2023-04-09T13:23:17.032Z,16.67
2023-04-09T13:25:45.296Z,16.57
2023-04-09T13:28:13.335Z,16.50
2023-04-09T13:30:41.742Z,16.42
2023-04-09T13:33:10.007Z,16.30
2023-04-09T13:35:41.135Z,16.21
2023-04-09T13:38:09.485Z,16.15
2023-04-09T13:40:37.667Z,16.14
2023-04-09T13:43:07.882Z,16.15
2023-04-09T13:45:36.157Z,16.16
2023-04-09T13:48:07.264Z,16.21
2023-04-09T13:50:35.516Z,16.26
2023-04-09T13:53:05.440Z,16.33
2023-04-09T13:55:33.500Z,16.43
2023-04-09T13:58:01.628Z,16.59
2023-04-09T14:00:31.195Z,16.75
2023-04-09T14:02:59.726Z,16.85
2023-04-09T14:05:30.160Z,16.93
2023-04-09T14:07:59.563Z,16.98
2023-04-09T14:10:27.691Z,16.95
2023-04-09T14:12:56.726Z,16.93
2023-04-09T14:15:26.039Z,16.91
2023-04-09T14:17:56.855Z,16.84
2023-04-09T14:20:25.348Z,16.78
2023-04-09T14:22:54.853Z,16.73
2023-04-09T14:25:23.738Z,16.73
2023-04-09T14:27:52.539Z,16.68
2023-04-09T14:30:22.852Z,16.68
2023-04-09T14:32:51.207Z,16.68
2023-04-09T14:35:20.324Z,16.65
2023-04-09T14:37:48.939Z,16.59
2023-04-09T14:40:17.410Z,16.57
2023-04-09T14:42:45.976Z,16.56
2023-04-09T14:45:14.458Z,16.56
2023-04-09T14:47:42.866Z,16.52
2023-04-09T14:50:13.001Z,16.47
2023-04-09T14:52:42.294Z,16.43
2023-04-09T14:55:12.675Z,16.36
2023-04-09T14:57:42.211Z,16.30
2023-04-09T15:00:12.661Z,16.25
2023-04-09T15:02:41.716Z,16.21
2023-04-09T15:05:10.870Z,16.15
2023-04-09T15:07:39.402Z,16.09
2023-04-09T15:10:08.510Z,15.99
2023-04-09T15:12:36.796Z,15.85
2023-04-09T15:15:09.568Z,15.75
2023-04-09T15:17:38.054Z,15.66
2023-04-09T15:20:07.961Z,15.59
2023-04-09T15:22:36.952Z,15.53
2023-04-09T15:25:05.742Z,15.46
2023-04-09T15:27:34.012Z,15.37
2023-04-09T15:30:02.423Z,15.24
2023-04-09T15:32:31.686Z,15.15
2023-04-09T15:35:00.947Z,15.08
2023-04-09T15:37:30.181Z,15.00
2023-04-09T15:39:58.776Z,14.92
2023-04-09T15:42:27.361Z,14.85
2023-04-09T15:44:56.158Z,14.79
2023-04-09T15:47:24.865Z,14.71
2023-04-09T15:49:53.329Z,14.65
2023-04-09T15:52:22.003Z,14.58
2023-04-09T15:54:50.481Z,14.51
2023-04-09T15:57:19.816Z,14.42
2023-04-09T15:59:48.627Z,14.34
2023-04-09T16:02:16.765Z,14.27
2023-04-09T16:04:45.723Z,14.20
2023-04-09T16:07:17.906Z,14.14
2023-04-09T16:09:46.795Z,14.06
2023-04-09T16:12:15.187Z,13.99
2023-04-09T16:14:43.569Z,13.93
2023-04-09T16:17:11.869Z,13.85
2023-04-09T16:19:40.108Z,13.77
2023-04-09T16:22:08.723Z,13.69
2023-04-09T16:24:37.583Z,13.60
2023-04-09T16:27:06.066Z,13.52
2023-04-09T16:29:34.764Z,13.42
2023-04-09T16:32:04.078Z,13.33
2023-04-09T16:34:32.431Z,13.22
2023-04-09T16:37:00.907Z,13.12
2023-04-09T16:39:29.580Z,13.01
2023-04-09T16:42:01.818Z,12.90
2023-04-09T16:44:30.552Z,12.79
2023-04-09T16:46:58.827Z,12.68
2023-04-09T16:49:27.311Z,12.57
2023-04-09T16:51:57.504Z,12.46
2023-04-09T16:54:26.321Z,12.35
2023-04-09T16:56:56.134Z,12.24
2023-04-09T16:59:24.923Z,12.15
2023-04-09T17:01:53.621Z,12.05
2023-04-09T17:04:22.182Z,11.96
2023-04-09T17:06:50.574Z,11.88
2023-04-09T17:09:18.949Z,11.79
2023-04-09T17:11:47.332Z,11.72
2023-04-09T17:14:16.057Z,11.66
2023-04-09T17:16:44.513Z,11.62
2023-04-09T17:19:14.113Z,11.57
2023-04-09T17:21:42.484Z,11.53
2023-04-09T17:24:10.967Z,11.48
2023-04-09T17:26:39.891Z,11.42
2023-04-09T17:29:08.089Z,11.35
2023-04-09T17:31:36.701Z,11.29
2023-04-09T17:34:05.201Z,11.24
2023-04-09T17:36:33.380Z,11.19
2023-04-09T17:39:01.965Z,11.13
2023-04-09T17:41:30.852Z,11.07
2023-04-09T17:43:59.023Z,11.01
2023-04-09T17:46:27.554Z,10.97
2023-04-09T17:48:56.606Z,10.92
2023-04-09T17:51:24.780Z,10.87
2023-04-09T17:53:54.055Z,10.82
2023-04-09T17:56:22.969Z,10.76
2023-04-09T17:58:51.818Z,10.70
2023-04-09T18:01:21.012Z,10.63
2023-04-09T18:03:49.681Z,10.56
2023-04-09T18:06:18.225Z,10.48
2023-04-09T18:08:46.399Z,10.40
2023-04-09T18:11:18.227Z,10.33
2023-04-09T18:13:46.761Z,10.26
2023-04-09T18:16:15.458Z,10.19
2023-04-09T18:18:43.813Z,10.12
2023-04-09T18:21:15.086Z,10.05
2023-04-09T18:23:43.330Z,9.99
2023-04-09T18:26:11.710Z,9.92
2023-04-09T18:28:40.607Z,9.86
2023-04-09T18:31:11.570Z,9.79
2023-04-09T18:33:40.104Z,9.71
2023-04-09T18:36:08.873Z,9.65
2023-04-09T18:38:37.613Z,9.59
2023-04-09T18:41:05.989Z,9.53
2023-04-09T18:43:34.466Z,9.48
2023-04-09T18:46:08.687Z,9.42
2023-04-09T18:48:37.357Z,9.36
2023-04-09T18:51:09.529Z,9.32
2023-04-09T18:53:38.033Z,9.27
2023-04-09T18:56:07.416Z,9.23
2023-04-09T18:58:36.458Z,9.18
2023-04-09T19:01:14.599Z,9.14
2023-04-09T19:03:43.252Z,9.12
2023-04-09T19:06:16.841Z,9.08
2023-04-09T19:08:46.324Z,9.06
2023-04-09T19:11:15.202Z,9.04
2023-04-09T19:13:44.135Z,9.04
2023-04-09T19:16:12.619Z,9.04
2023-04-09T19:18:41.159Z,9.03
2023-04-09T19:21:09.292Z,9.02
2023-04-09T19:23:39.146Z,9.01
2023-04-09T19:26:07.527Z,9.02
2023-04-09T19:28:36.251Z,9.04
2023-04-09T19:31:06.439Z,9.05
2023-04-09T19:33:34.716Z,9.07
2023-04-09T19:36:02.898Z,9.07
2023-04-09T19:38:31.163Z,9.08
2023-04-09T19:40:59.542Z,9.09
2023-04-09T19:43:29.352Z,9.11
2023-04-09T19:45:57.845Z,9.11
2023-04-09T19:48:26.327Z,9.10
2023-04-09T19:50:54.725Z,9.09
2023-04-09T19:53:23.278Z,9.07
2023-04-09T19:55:51.755Z,9.04
2023-04-09T19:58:19.949Z,8.99
2023-04-09T20:00:48.406Z,8.95
2023-04-09T20:03:17.372Z,8.90
2023-04-09T20:05:45.750Z,8.86
2023-04-09T20:08:15.858Z,8.81
2023-04-09T20:10:46.948Z,8.76
2023-04-09T20:13:15.230Z,8.70
2023-04-09T20:15:44.526Z,8.66
2023-04-09T20:18:12.908Z,8.61
2023-04-09T20:20:41.285Z,8.57
2023-04-09T20:23:09.878Z,8.53
2023-04-09T20:25:38.266Z,8.49
2023-04-09T20:28:06.627Z,8.45
2023-04-09T20:30:35.105Z,8.41
2023-04-09T20:33:03.526Z,8.38
2023-04-09T20:35:36.607Z,8.35
2023-04-09T20:38:04.952Z,8.33
2023-04-09T20:40:36.140Z,8.31
2023-04-09T20:43:04.679Z,8.30
2023-04-09T20:45:32.995Z,8.28
2023-04-09T20:48:01.693Z,8.28
2023-04-09T20:50:31.150Z,8.28
2023-04-09T20:52:59.650Z,8.29
2023-04-09T20:55:27.812Z,8.29
2023-04-09T20:57:56.612Z,8.29
2023-04-09T21:00:24.971Z,8.28
2023-04-09T21:02:53.307Z,8.26
2023-04-09T21:05:23.981Z,8.23
2023-04-09T21:07:53.284Z,8.21
2023-04-09T21:10:21.889Z,8.18
2023-04-09T21:12:50.244Z,8.14
2023-04-09T21:15:18.524Z,8.10
2023-04-09T21:17:46.852Z,8.05
2023-04-09T21:20:16.772Z,7.99
2023-04-09T21:22:45.846Z,7.93
2023-04-09T21:25:15.428Z,7.86
2023-04-09T21:27:44.007Z,7.80
2023-04-09T21:30:12.494Z,7.74
2023-04-09T21:32:40.731Z,7.68
2023-04-09T21:35:08.949Z,7.63
2023-04-09T21:37:38.447Z,7.58
2023-04-09T21:40:07.566Z,7.53
2023-04-09T21:42:36.052Z,7.48
2023-04-09T21:45:05.121Z,7.44
2023-04-09T21:47:33.742Z,7.41
2023-04-09T21:50:03.566Z,7.37
2023-04-09T21:52:32.412Z,7.35
2023-04-09T21:55:01.154Z,7.33
2023-04-09T21:57:29.679Z,7.32
2023-04-09T21:59:58.885Z,7.31
2023-04-09T22:02:28.527Z,7.30
2023-04-09T22:05:00.117Z,7.30
2023-04-09T22:07:28.625Z,7.31
2023-04-09T22:09:57.937Z,7.32
2023-04-09T22:12:26.311Z,7.32
2023-04-09T22:14:54.688Z,7.31
2023-04-09T22:17:22.878Z,7.31
2023-04-09T22:19:51.263Z,7.30
2023-04-09T22:22:19.414Z,7.30
2023-04-09T22:24:47.597Z,7.29
2023-04-09T22:27:16.433Z,7.26
2023-04-09T22:29:44.958Z,7.22
2023-04-09T22:32:13.753Z,7.19
2023-04-09T22:34:42.024Z,7.16
2023-04-09T22:37:10.620Z,7.13
2023-04-09T22:39:38.986Z,7.10
2023-04-09T22:42:07.775Z,7.08
2023-04-09T22:44:36.464Z,7.05
2023-04-09T22:47:04.639Z,7.02
2023-04-09T22:49:32.930Z,6.99
2023-04-09T22:52:01.391Z,6.97
2023-04-09T22:54:30.386Z,6.95
2023-04-09T22:56:58.565Z,6.93
2023-04-09T22:59:39.017Z,6.91
2023-04-09T23:02:08.759Z,6.90
2023-04-09T23:04:37.479Z,6.89
2023-04-09T23:07:06.000Z,6.89
2023-04-09T23:09:34.378Z,6.88
2023-04-09T23:12:03.076Z,6.89
2023-04-09T23:14:31.345Z,6.91
2023-04-09T23:16:59.514Z,6.93
2023-04-09T23:19:28.001Z,6.95
2023-04-09T23:21:56.593Z,6.97
2023-04-09T23:24:24.942Z,6.99
2023-04-09T23:26:53.337Z,7.00
2023-04-09T23:29:21.510Z,7.01
2023-04-09T23:31:49.639Z,7.01
2023-04-09T23:34:17.865Z,7.02
2023-04-09T23:36:46.342Z,7.01
2023-04-09T23:39:14.723Z,7.01
2023-04-09T23:41:43.205Z,7.00
2023-04-09T23:44:11.284Z,6.98
2023-04-09T23:46:39.514Z,6.95
2023-04-09T23:49:07.827Z,6.93
2023-04-09T23:51:36.310Z,6.89
2023-04-09T23:54:04.502Z,6.85
2023-04-09T23:56:33.587Z,6.81
2023-04-09T23:59:01.766Z,6.77
